sensor_id;sensor_type;location;lat;lon;timestamp;temperature;humidity
32895;DHT22;19251;49.484;8.260;2023-02-11T00:02:53;4.00;21.80
32895;DHT22;19251;49.484;8.260;2023-02-11T00:07:55;4.10;21.60
32895;DHT22;19251;49.484;8.260;2023-02-11T00:12:58;4.30;22.00
32895;DHT22;19251;49.484;8.260;2023-02-11T00:18:00;4.30;22.00
32895;DHT22;19251;49.484;8.260;2023-02-11T00:23:02;4.40;21.60
32895;DHT22;19251;49.484;8.260;2023-02-11T00:28:04;4.50;22.20
32895;DHT22;19251;49.484;8.260;2023-02-11T00:33:06;4.60;21.90
32895;DHT22;19251;49.484;8.260;2023-02-11T00:38:08;4.50;22.30
32895;DHT22;19251;49.484;8.260;2023-02-11T00:43:11;4.70;22.50
32895;DHT22;19251;49.484;8.260;2023-02-11T00:48:13;4.80;22.50
32895;DHT22;19251;49.484;8.260;2023-02-11T00:53:15;4.90;22.60
32895;DHT22;19251;49.484;8.260;2023-02-11T00:58:17;4.80;22.50
32895;DHT22;19251;49.484;8.260;2023-02-11T01:03:19;5.20;22.90
32895;DHT22;19251;49.484;8.260;2023-02-11T01:08:21;5.00;22.70
32895;DHT22;19251;49.484;8.260;2023-02-11T01:13:24;5.00;22.20
32895;DHT22;19251;49.484;8.260;2023-02-11T01:18:27;5.00;22.60
32895;DHT22;19251;49.484;8.260;2023-02-11T01:23:29;4.90;22.50
32895;DHT22;19251;49.484;8.260;2023-02-11T01:28:31;4.90;22.50
32895;DHT22;19251;49.484;8.260;2023-02-11T01:33:34;4.90;22.90
32895;DHT22;19251;49.484;8.260;2023-02-11T01:38:36;5.10;22.90
32895;DHT22;19251;49.484;8.260;2023-02-11T01:43:46;5.10;23.30
32895;DHT22;19251;49.484;8.260;2023-02-11T01:48:53;5.30;23.50
32895;DHT22;19251;49.484;8.260;2023-02-11T01:53:56;5.40;23.70
32895;DHT22;19251;49.484;8.260;2023-02-11T01:59:22;5.30;23.50
32895;DHT22;19251;49.484;8.260;2023-02-11T02:04:26;5.40;23.60
32895;DHT22;19251;49.484;8.260;2023-02-11T02:09:34;5.50;23.60
32895;DHT22;19251;49.484;8.260;2023-02-11T02:14:39;5.70;23.60
32895;DHT22;19251;49.484;8.260;2023-02-11T02:35:47;5.70;23.70
32895;DHT22;19251;49.484;8.260;2023-02-11T02:40:55;5.70;23.20
32895;DHT22;19251;49.484;8.260;2023-02-11T03:01:53;5.90;23.40
32895;DHT22;19251;49.484;8.260;2023-02-11T03:07:02;5.90;23.40
32895;DHT22;19251;49.484;8.260;2023-02-11T03:12:05;5.90;23.70
32895;DHT22;19251;49.484;8.260;2023-02-11T03:17:08;5.90;23.70
32895;DHT22;19251;49.484;8.260;2023-02-11T03:22:13;5.90;23.80
32895;DHT22;19251;49.484;8.260;2023-02-11T03:27:29;6.10;23.50
32895;DHT22;19251;49.484;8.260;2023-02-11T03:32:37;5.90;23.90
32895;DHT22;19251;49.484;8.260;2023-02-11T03:48:00;6.00;23.40
32895;DHT22;19251;49.484;8.260;2023-02-11T03:53:03;6.00;23.50
32895;DHT22;19251;49.484;8.260;2023-02-11T03:58:07;6.00;23.90
32895;DHT22;19251;49.484;8.260;2023-02-11T04:03:09;6.10;24.00
32895;DHT22;19251;49.484;8.260;2023-02-11T04:08:11;6.10;23.80
32895;DHT22;19251;49.484;8.260;2023-02-11T04:13:13;6.10;24.30
32895;DHT22;19251;49.484;8.260;2023-02-11T04:18:16;6.20;24.60
32895;DHT22;19251;49.484;8.260;2023-02-11T04:23:18;6.30;24.80
32895;DHT22;19251;49.484;8.260;2023-02-11T04:28:20;6.40;24.80
32895;DHT22;19251;49.484;8.260;2023-02-11T04:33:22;6.40;24.70
32895;DHT22;19251;49.484;8.260;2023-02-11T04:38:24;6.50;24.70
32895;DHT22;19251;49.484;8.260;2023-02-11T04:43:27;6.70;24.40
32895;DHT22;19251;49.484;8.260;2023-02-11T04:48:29;6.60;23.90
32895;DHT22;19251;49.484;8.260;2023-02-11T04:53:31;6.50;24.30
32895;DHT22;19251;49.484;8.260;2023-02-11T04:58:33;6.70;24.10
32895;DHT22;19251;49.484;8.260;2023-02-11T05:03:35;6.40;23.70
32895;DHT22;19251;49.484;8.260;2023-02-11T05:08:38;6.30;23.90
32895;DHT22;19251;49.484;8.260;2023-02-11T05:18:43;5.90;23.80
32895;DHT22;19251;49.484;8.260;2023-02-11T05:23:45;5.90;23.90
32895;DHT22;19251;49.484;8.260;2023-02-11T05:28:47;5.70;23.80
32895;DHT22;19251;49.484;8.260;2023-02-11T05:33:50;5.90;24.10
32895;DHT22;19251;49.484;8.260;2023-02-11T05:38:52;5.60;23.90
32895;DHT22;19251;49.484;8.260;2023-02-11T05:43:53;5.50;23.80
32895;DHT22;19251;49.484;8.260;2023-02-11T05:48:55;5.40;24.00
32895;DHT22;19251;49.484;8.260;2023-02-11T05:53:58;5.40;23.90
32895;DHT22;19251;49.484;8.260;2023-02-11T05:59:00;5.30;24.30
32895;DHT22;19251;49.484;8.260;2023-02-11T06:04:02;5.30;24.40
32895;DHT22;19251;49.484;8.260;2023-02-11T06:09:04;5.30;24.40
32895;DHT22;19251;49.484;8.260;2023-02-11T06:14:06;5.60;24.20
32895;DHT22;19251;49.484;8.260;2023-02-11T06:19:08;5.40;24.30
32895;DHT22;19251;49.484;8.260;2023-02-11T06:24:10;5.40;24.60
32895;DHT22;19251;49.484;8.260;2023-02-11T06:29:13;5.40;24.70
32895;DHT22;19251;49.484;8.260;2023-02-11T06:34:15;5.60;24.80
32895;DHT22;19251;49.484;8.260;2023-02-11T06:39:17;5.40;24.60
32895;DHT22;19251;49.484;8.260;2023-02-11T06:44:19;5.40;24.70
32895;DHT22;19251;49.484;8.260;2023-02-11T06:49:21;5.50;24.70
32895;DHT22;19251;49.484;8.260;2023-02-11T06:54:23;5.50;24.00
32895;DHT22;19251;49.484;8.260;2023-02-11T06:59:25;5.40;24.10
32895;DHT22;19251;49.484;8.260;2023-02-11T07:04:27;5.60;24.50
32895;DHT22;19251;49.484;8.260;2023-02-11T07:09:29;5.60;24.10
32895;DHT22;19251;49.484;8.260;2023-02-11T07:14:32;5.40;24.70
32895;DHT22;19251;49.484;8.260;2023-02-11T07:19:34;5.60;24.90
32895;DHT22;19251;49.484;8.260;2023-02-11T07:24:36;5.40;24.10
32895;DHT22;19251;49.484;8.260;2023-02-11T07:29:38;5.50;24.90
32895;DHT22;19251;49.484;8.260;2023-02-11T07:34:40;5.70;25.00
32895;DHT22;19251;49.484;8.260;2023-02-11T07:39:43;5.50;24.40
32895;DHT22;19251;49.484;8.260;2023-02-11T07:44:45;5.90;25.30
32895;DHT22;19251;49.484;8.260;2023-02-11T07:49:51;5.60;25.10
32895;DHT22;19251;49.484;8.260;2023-02-11T07:54:57;5.60;25.10
32895;DHT22;19251;49.484;8.260;2023-02-11T07:59:59;5.90;24.80
32895;DHT22;19251;49.484;8.260;2023-02-11T08:05:01;5.80;25.20
32895;DHT22;19251;49.484;8.260;2023-02-11T08:15:05;6.10;24.90
32895;DHT22;19251;49.484;8.260;2023-02-11T08:20:08;6.20;25.30
32895;DHT22;19251;49.484;8.260;2023-02-11T08:25:10;6.50;25.40
32895;DHT22;19251;49.484;8.260;2023-02-11T08:30:12;6.50;24.50
32895;DHT22;19251;49.484;8.260;2023-02-11T08:35:15;6.50;25.20
32895;DHT22;19251;49.484;8.260;2023-02-11T08:40:17;6.70;24.40
32895;DHT22;19251;49.484;8.260;2023-02-11T08:45:19;6.80;25.10
32895;DHT22;19251;49.484;8.260;2023-02-11T08:50:21;6.80;24.90
32895;DHT22;19251;49.484;8.260;2023-02-11T08:55:23;6.80;24.90
32895;DHT22;19251;49.484;8.260;2023-02-11T09:00:25;6.90;24.90
32895;DHT22;19251;49.484;8.260;2023-02-11T09:05:27;6.90;24.90
32895;DHT22;19251;49.484;8.260;2023-02-11T09:10:29;7.00;25.00
32895;DHT22;19251;49.484;8.260;2023-02-11T09:15:32;7.50;25.30
32895;DHT22;19251;49.484;8.260;2023-02-11T09:20:34;7.40;25.10
32895;DHT22;19251;49.484;8.260;2023-02-11T09:25:38;7.50;25.10
32895;DHT22;19251;49.484;8.260;2023-02-11T09:30:40;7.70;24.80
32895;DHT22;19251;49.484;8.260;2023-02-11T09:35:42;7.90;25.10
32895;DHT22;19251;49.484;8.260;2023-02-11T09:40:44;8.20;25.10
32895;DHT22;19251;49.484;8.260;2023-02-11T09:45:47;8.50;24.90
32895;DHT22;19251;49.484;8.260;2023-02-11T09:50:51;8.50;24.80
32895;DHT22;19251;49.484;8.260;2023-02-11T09:55:59;8.70;24.50
32895;DHT22;19251;49.484;8.260;2023-02-11T10:06:10;9.00;24.40
32895;DHT22;19251;49.484;8.260;2023-02-11T10:11:20;9.00;24.10
32895;DHT22;19251;49.484;8.260;2023-02-11T10:16:55;9.20;24.30
32895;DHT22;19251;49.484;8.260;2023-02-11T10:27:01;9.30;24.30
32895;DHT22;19251;49.484;8.260;2023-02-11T10:32:13;9.40;24.10
32895;DHT22;19251;49.484;8.260;2023-02-11T10:37:17;9.40;24.20
32895;DHT22;19251;49.484;8.260;2023-02-11T10:42:19;9.80;23.90
32895;DHT22;19251;49.484;8.260;2023-02-11T10:47:21;9.90;23.80
32895;DHT22;19251;49.484;8.260;2023-02-11T10:57:40;10.20;23.00
32895;DHT22;19251;49.484;8.260;2023-02-11T11:02:50;10.30;22.90
32895;DHT22;19251;49.484;8.260;2023-02-11T11:07:54;10.50;22.90
32895;DHT22;19251;49.484;8.260;2023-02-11T11:12:57;10.60;22.90
32895;DHT22;19251;49.484;8.260;2023-02-11T11:23:23;11.00;22.80
32895;DHT22;19251;49.484;8.260;2023-02-11T11:28:26;11.30;22.70
32895;DHT22;19251;49.484;8.260;2023-02-11T11:33:31;11.50;22.10
32895;DHT22;19251;49.484;8.260;2023-02-11T11:38:36;11.60;21.60
32895;DHT22;19251;49.484;8.260;2023-02-11T11:43:39;11.70;22.00
32895;DHT22;19251;49.484;8.260;2023-02-11T11:48:41;12.10;21.80
32895;DHT22;19251;49.484;8.260;2023-02-11T11:53:50;12.40;21.60
32895;DHT22;19251;49.484;8.260;2023-02-11T11:58:54;12.80;21.60
32895;DHT22;19251;49.484;8.260;2023-02-11T12:30:17;13.90;19.20
32895;DHT22;19251;49.484;8.260;2023-02-11T12:46:10;14.20;18.10
32895;DHT22;19251;49.484;8.260;2023-02-11T12:56:55;14.20;17.60
32895;DHT22;19251;49.484;8.260;2023-02-11T13:02:03;14.10;17.00
32895;DHT22;19251;49.484;8.260;2023-02-11T13:07:11;14.00;17.50
32895;DHT22;19251;49.484;8.260;2023-02-11T13:12:16;14.00;17.50
32895;DHT22;19251;49.484;8.260;2023-02-11T13:17:39;14.00;17.40
32895;DHT22;19251;49.484;8.260;2023-02-11T13:22:47;13.90;16.90
32895;DHT22;19251;49.484;8.260;2023-02-11T13:27:58;13.80;17.00
32895;DHT22;19251;49.484;8.260;2023-02-11T13:33:13;13.70;17.00
32895;DHT22;19251;49.484;8.260;2023-02-11T13:38:21;13.70;17.10
32895;DHT22;19251;49.484;8.260;2023-02-11T13:43:24;13.50;17.50
32895;DHT22;19251;49.484;8.260;2023-02-11T13:53:45;13.30;17.50
32895;DHT22;19251;49.484;8.260;2023-02-11T13:58:48;13.10;17.70
32895;DHT22;19251;49.484;8.260;2023-02-11T14:09:37;12.80;17.90
32895;DHT22;19251;49.484;8.260;2023-02-11T14:15:16;12.60;17.80
32895;DHT22;19251;49.484;8.260;2023-02-11T14:25:29;12.50;18.30
32895;DHT22;19251;49.484;8.260;2023-02-11T14:30:42;12.40;18.70
32895;DHT22;19251;49.484;8.260;2023-02-11T14:40:57;12.00;18.60
32895;DHT22;19251;49.484;8.260;2023-02-11T14:46:01;12.10;18.60
32895;DHT22;19251;49.484;8.260;2023-02-11T14:51:07;11.90;18.50
32895;DHT22;19251;49.484;8.260;2023-02-11T14:56:18;12.00;19.10
32895;DHT22;19251;49.484;8.260;2023-02-11T15:01:22;11.90;19.00
32895;DHT22;19251;49.484;8.260;2023-02-11T15:06:31;12.00;19.10
32895;DHT22;19251;49.484;8.260;2023-02-11T15:11:36;11.90;19.10
32895;DHT22;19251;49.484;8.260;2023-02-11T15:16:41;11.90;18.70
32895;DHT22;19251;49.484;8.260;2023-02-11T15:21:43;11.90;19.20
32895;DHT22;19251;49.484;8.260;2023-02-11T15:26:58;11.90;19.30
32895;DHT22;19251;49.484;8.260;2023-02-11T15:32:02;11.70;19.30
32895;DHT22;19251;49.484;8.260;2023-02-11T15:37:05;11.70;18.90
32895;DHT22;19251;49.484;8.260;2023-02-11T15:42:21;11.80;19.60
32895;DHT22;19251;49.484;8.260;2023-02-11T15:47:28;11.60;19.10
32895;DHT22;19251;49.484;8.260;2023-02-11T15:52:30;11.70;19.60
32895;DHT22;19251;49.484;8.260;2023-02-11T15:57:32;11.60;19.50
32895;DHT22;19251;49.484;8.260;2023-02-11T16:02:34;11.60;19.70
32895;DHT22;19251;49.484;8.260;2023-02-11T16:12:48;11.60;19.40
32895;DHT22;19251;49.484;8.260;2023-02-11T16:17:51;11.50;19.80
32895;DHT22;19251;49.484;8.260;2023-02-11T16:22:55;11.80;20.00
32895;DHT22;19251;49.484;8.260;2023-02-11T16:27:57;11.80;20.10
32895;DHT22;19251;49.484;8.260;2023-02-11T16:32:59;11.50;19.90
32895;DHT22;19251;49.484;8.260;2023-02-11T16:38:01;11.60;20.00
32895;DHT22;19251;49.484;8.260;2023-02-11T16:43:03;11.50;19.90
32895;DHT22;19251;49.484;8.260;2023-02-11T16:48:06;11.50;19.90
32895;DHT22;19251;49.484;8.260;2023-02-11T16:53:09;11.50;20.00
32895;DHT22;19251;49.484;8.260;2023-02-11T16:58:11;11.40;19.50
32895;DHT22;19251;49.484;8.260;2023-02-11T17:03:15;11.50;20.00
32895;DHT22;19251;49.484;8.260;2023-02-11T17:08:17;11.50;19.60
32895;DHT22;19251;49.484;8.260;2023-02-11T17:13:20;11.40;20.10
32895;DHT22;19251;49.484;8.260;2023-02-11T17:18:22;11.40;20.20
32895;DHT22;19251;49.484;8.260;2023-02-11T17:23:24;11.40;20.20
32895;DHT22;19251;49.484;8.260;2023-02-11T17:28:26;11.30;20.20
32895;DHT22;19251;49.484;8.260;2023-02-11T17:33:28;11.40;20.40
32895;DHT22;19251;49.484;8.260;2023-02-11T17:38:30;11.40;20.60
32895;DHT22;19251;49.484;8.260;2023-02-11T17:43:32;11.30;20.40
32895;DHT22;19251;49.484;8.260;2023-02-11T17:48:37;11.20;20.20
32895;DHT22;19251;49.484;8.260;2023-02-11T17:53:39;11.20;20.60
32895;DHT22;19251;49.484;8.260;2023-02-11T17:58:41;11.20;20.60
32895;DHT22;19251;49.484;8.260;2023-02-11T18:03:43;11.10;21.20
32895;DHT22;19251;49.484;8.260;2023-02-11T18:08:45;11.00;21.20
32895;DHT22;19251;49.484;8.260;2023-02-11T18:13:48;11.20;21.50
32895;DHT22;19251;49.484;8.260;2023-02-11T18:18:55;10.80;21.70
32895;DHT22;19251;49.484;8.260;2023-02-11T18:23:58;10.90;21.80
32895;DHT22;19251;49.484;8.260;2023-02-11T18:29:07;10.90;21.40
32895;DHT22;19251;49.484;8.260;2023-02-11T18:34:09;10.90;21.60
32895;DHT22;19251;49.484;8.260;2023-02-11T18:39:11;11.00;21.60
32895;DHT22;19251;49.484;8.260;2023-02-11T18:44:13;10.80;21.30
32895;DHT22;19251;49.484;8.260;2023-02-11T18:49:21;10.80;21.40
32895;DHT22;19251;49.484;8.260;2023-02-11T18:54:23;10.70;21.30
32895;DHT22;19251;49.484;8.260;2023-02-11T18:59:26;10.70;21.70
32895;DHT22;19251;49.484;8.260;2023-02-11T19:04:28;10.70;21.80
32895;DHT22;19251;49.484;8.260;2023-02-11T19:09:30;10.60;21.80
32895;DHT22;19251;49.484;8.260;2023-02-11T19:14:32;10.70;21.60
32895;DHT22;19251;49.484;8.260;2023-02-11T19:19:35;10.60;22.00
32895;DHT22;19251;49.484;8.260;2023-02-11T19:24:37;10.50;22.20
32895;DHT22;19251;49.484;8.260;2023-02-11T19:29:39;10.50;22.40
32895;DHT22;19251;49.484;8.260;2023-02-11T19:34:41;10.60;22.50
32895;DHT22;19251;49.484;8.260;2023-02-11T19:39:43;10.50;22.10
32895;DHT22;19251;49.484;8.260;2023-02-11T19:44:46;10.50;22.20
32895;DHT22;19251;49.484;8.260;2023-02-11T19:49:48;10.40;22.10
32895;DHT22;19251;49.484;8.260;2023-02-11T19:54:50;10.50;22.50
32895;DHT22;19251;49.484;8.260;2023-02-11T19:59:52;10.30;22.50
32895;DHT22;19251;49.484;8.260;2023-02-11T20:04:56;10.50;22.80
32895;DHT22;19251;49.484;8.260;2023-02-11T20:09:58;10.40;22.80
32895;DHT22;19251;49.484;8.260;2023-02-11T20:15:00;10.30;22.50
32895;DHT22;19251;49.484;8.260;2023-02-11T20:20:02;10.30;22.40
32895;DHT22;19251;49.484;8.260;2023-02-11T20:25:04;10.30;22.80
32895;DHT22;19251;49.484;8.260;2023-02-11T20:30:07;10.30;22.90
32895;DHT22;19251;49.484;8.260;2023-02-11T20:35:10;10.40;22.90
32895;DHT22;19251;49.484;8.260;2023-02-11T20:40:12;10.60;22.70
32895;DHT22;19251;49.484;8.260;2023-02-11T20:45:14;10.50;23.00
32895;DHT22;19251;49.484;8.260;2023-02-11T20:50:16;10.30;22.50
32895;DHT22;19251;49.484;8.260;2023-02-11T20:55:18;10.40;22.80
32895;DHT22;19251;49.484;8.260;2023-02-11T21:00:20;10.30;22.60
32895;DHT22;19251;49.484;8.260;2023-02-11T21:05:22;10.40;23.20
32895;DHT22;19251;49.484;8.260;2023-02-11T21:10:24;10.40;23.20
32895;DHT22;19251;49.484;8.260;2023-02-11T21:15:26;10.30;23.10
32895;DHT22;19251;49.484;8.260;2023-02-11T21:20:28;10.30;23.10
32895;DHT22;19251;49.484;8.260;2023-02-11T21:25:30;10.50;23.20
32895;DHT22;19251;49.484;8.260;2023-02-11T21:30:32;10.40;23.20
32895;DHT22;19251;49.484;8.260;2023-02-11T21:35:36;10.30;22.90
32895;DHT22;19251;49.484;8.260;2023-02-11T21:40:38;10.20;23.20
32895;DHT22;19251;49.484;8.260;2023-02-11T21:45:41;10.20;22.70
32895;DHT22;19251;49.484;8.260;2023-02-11T21:50:45;10.30;23.30
32895;DHT22;19251;49.484;8.260;2023-02-11T21:55:47;10.10;23.30
32895;DHT22;19251;49.484;8.260;2023-02-11T22:00:52;10.00;23.30
32895;DHT22;19251;49.484;8.260;2023-02-11T22:05:54;10.00;23.40
32895;DHT22;19251;49.484;8.260;2023-02-11T22:15:59;9.90;24.00
32895;DHT22;19251;49.484;8.260;2023-02-11T22:21:09;10.00;23.60
32895;DHT22;19251;49.484;8.260;2023-02-11T22:26:22;9.90;24.70
32895;DHT22;19251;49.484;8.260;2023-02-11T22:31:25;10.00;23.60
32895;DHT22;19251;49.484;8.260;2023-02-11T22:36:35;9.90;24.40
32895;DHT22;19251;49.484;8.260;2023-02-11T22:41:42;10.40;24.00
32895;DHT22;19251;49.484;8.260;2023-02-11T22:46:44;9.80;24.40
32895;DHT22;19251;49.484;8.260;2023-02-11T22:51:46;10.20;24.00
32895;DHT22;19251;49.484;8.260;2023-02-11T22:56:49;9.80;24.50
32895;DHT22;19251;49.484;8.260;2023-02-11T23:01:51;9.60;24.00
32895;DHT22;19251;49.484;8.260;2023-02-11T23:06:53;9.70;24.50
32895;DHT22;19251;49.484;8.260;2023-02-11T23:11:55;9.70;24.60
32895;DHT22;19251;49.484;8.260;2023-02-11T23:16:58;9.70;24.70
32895;DHT22;19251;49.484;8.260;2023-02-11T23:22:00;9.70;24.40
32895;DHT22;19251;49.484;8.260;2023-02-11T23:27:04;9.80;24.90
32895;DHT22;19251;49.484;8.260;2023-02-11T23:32:06;9.70;24.70
32895;DHT22;19251;49.484;8.260;2023-02-11T23:37:08;9.90;24.50
32895;DHT22;19251;49.484;8.260;2023-02-11T23:42:10;9.70;24.90
32895;DHT22;19251;49.484;8.260;2023-02-11T23:47:12;9.70;25.00
32895;DHT22;19251;49.484;8.260;2023-02-11T23:52:14;9.80;25.20
32895;DHT22;19251;49.484;8.260;2023-02-11T23:57:17;9.80;25.20
